X  Cerrar Datos meteorológicos de aviación METAR     EDNY Friedrichshafen Airport
Temperatura
14°C Temperatura
8°C Punto de rocío
67% Humedad



Viento
10 KM/H
6 MPH
3 M/S
5 NUDO



30°
NNE
Condiciones actuales

Parcialmente nublado Parcialmente nublado
Presión 1016.93 (hPa) - 30.03 (inHg)
Visibilidad 6 (milla) - 9.7 (km)
Aeropuerto
Código de aeropuerto EDNY

localidad: Friedrichshafen Airport
Distancia: 40 (km)

Metar:
EDNY 122020Z AUTO 03005KT 9999 // FEW073/// OVC100/// 14/08 Q1017

Hora: 12-06-2024 22:20 CEST